PWSweather.com
Personal Weather Stations
Station Observations
OBSERWACJEMETEO
Skórowo, SkorowoPL 76-230

SkórowoSkorowoPL 76-230

Lat: 54.5030556, Lon: 17.5277777

Elevation: 77

Station Type: WH2080

http://obserwacjemeteo.eu/

Latest ConditionsUpdated 8:10:03 PM GMT+01:01 Tuesday, Nov 12, 2019
Currently Today's Max Today's Min Today's Average
Temperature 41.5°F5.3°C 43.9°F6.6°C 34.3°F1.3°C 40.7°F4.8°C
Dew Point 38.0°F3.3°C 38.8°F3.8°C 29.7°F-1.3°C 35.6°F2.0°C
Winds 2.2 mph E3.5 kmh E 4.5 mph -7.2 kmh - - 1.7 mph 2.7 kmh
Wind Gusts 3.8 mph6.1 kmh 7.6 mph12.2 kmh - -
Humidity 87% 88% 76% 82%
Pressure 29.76 in1007.8 mb 29.86 in1011.2 mb 29.76 in1007.8 mb -
Precipitation - 0.04 in1.0 mm - -
Hour Temp Dew Point Humidity Winds Wind Gusts Pressure Precip Precip Rate Daily Precip Total
08:10 PM 41.5°F5.3°C 38.0°F3.3°C 87% 2.2 mph E3.5 kmh E 3.8 mph6.1 kmh 29.76 in1007.8 mb 0.01 in0.3 mm 0.00 in0.0 mm 0.04 in1.0 mm
08:00 PM 41.5°F5.3°C 38.0°F3.3°C 87% 2.2 mph NNE3.5 kmh NNE 4.5 mph7.2 kmh 29.77 in1008.1 mb 0.02 in0.5 mm 0.00 in0.0 mm 0.04 in1.0 mm
07:50 PM 41.5°F5.3°C 38.0°F3.3°C 87% 1.6 mph NE2.6 kmh NE 4.5 mph7.2 kmh 29.77 in1008.1 mb 0.02 in0.5 mm 0.00 in0.0 mm 0.04 in1.0 mm
07:40 PM 41.5°F5.3°C 38.0°F3.3°C 87% 2.2 mph ENE3.5 kmh ENE 5.4 mph8.7 kmh 29.77 in1008.1 mb 0.02 in0.5 mm 0.06 in1.5 mm 0.04 in1.0 mm
07:30 PM 41.7°F5.4°C 38.1°F3.4°C 87% 2.2 mph N3.5 kmh N 4.5 mph7.2 kmh 29.77 in1008.1 mb 0.01 in0.3 mm 0.00 in0.0 mm 0.02 in0.5 mm
07:20 PM 41.7°F5.4°C 38.4°F3.6°C 88% 1.6 mph NE2.6 kmh NE 4.5 mph7.2 kmh 29.78 in1008.5 mb 0.01 in0.3 mm 0.00 in0.0 mm 0.02 in0.5 mm
07:10 PM 41.7°F5.4°C 38.4°F3.6°C 88% 3.1 mph NNW5.0 kmh NNW 4.5 mph7.2 kmh 29.78 in1008.5 mb 0.01 in0.3 mm 0.06 in1.5 mm 0.02 in0.5 mm
07:00 PM 41.7°F5.4°C 38.4°F3.6°C 88% 1.6 mph E2.6 kmh E 3.8 mph6.1 kmh 29.78 in1008.5 mb 0.00 in0.0 mm 0.00 in0.0 mm 0.01 in0.3 mm
06:50 PM 41.9°F5.5°C 38.6°F3.7°C 88% 2.2 mph E3.5 kmh E 5.4 mph8.7 kmh 29.78 in1008.5 mb 0.00 in0.0 mm 0.00 in0.0 mm 0.01 in0.3 mm
06:40 PM 42.1°F5.6°C 38.8°F3.8°C 88% 2.2 mph E3.5 kmh E 6.0 mph9.7 kmh 29.78 in1008.5 mb 0.00 in0.0 mm 0.00 in0.0 mm 0.01 in0.3 mm
06:30 PM 42.1°F5.6°C 38.8°F3.8°C 88% 2.2 mph NNE3.5 kmh NNE 5.4 mph8.7 kmh 29.79 in1008.8 mb 0.00 in0.0 mm 0.00 in0.0 mm 0.01 in0.3 mm
06:20 PM 42.1°F5.6°C 38.8°F3.8°C 88% 1.6 mph N2.6 kmh N 4.5 mph7.2 kmh 29.78 in1008.5 mb 0.00 in0.0 mm 0.00 in0.0 mm 0.01 in0.3 mm
06:10 PM 42.1°F5.6°C 38.8°F3.8°C 88% 3.1 mph N5.0 kmh N 7.6 mph12.2 kmh 29.78 in1008.5 mb 0.00 in0.0 mm 0.00 in0.0 mm 0.01 in0.3 mm
06:00 PM 41.9°F5.5°C 38.6°F3.7°C 88% 3.8 mph NE6.1 kmh NE 7.6 mph12.2 kmh 29.78 in1008.5 mb 0.00 in0.0 mm 0.00 in0.0 mm 0.01 in0.3 mm
05:50 PM 41.9°F5.5°C 38.3°F3.5°C 87% 2.2 mph NE3.5 kmh NE 3.8 mph6.1 kmh 29.77 in1008.1 mb 0.00 in0.0 mm 0.00 in0.0 mm 0.01 in0.3 mm
05:40 PM 41.9°F5.5°C 38.3°F3.5°C 87% 0.7 mph NNE1.1 kmh NNE 3.8 mph6.1 kmh 29.78 in1008.5 mb 0.00 in0.0 mm 0.00 in0.0 mm 0.01 in0.3 mm
05:30 PM 41.9°F5.5°C 38.3°F3.5°C 87% 0.7 mph NE1.1 kmh NE 2.2 mph3.5 kmh 29.78 in1008.5 mb 0.00 in0.0 mm 0.00 in0.0 mm 0.01 in0.3 mm
05:20 PM 41.9°F5.5°C 38.0°F3.3°C 86% 0.7 mph NNE1.1 kmh NNE 3.1 mph5.0 kmh 29.78 in1008.5 mb 0.01 in0.3 mm 0.00 in0.0 mm 0.01 in0.3 mm
05:10 PM 42.1°F5.6°C 38.2°F3.4°C 86% 0.7 mph N1.1 kmh N 2.2 mph3.5 kmh 29.79 in1008.8 mb 0.01 in0.3 mm 0.00 in0.0 mm 0.01 in0.3 mm
05:00 PM 42.1°F5.6°C 38.2°F3.4°C 86% 0.7 mph E1.1 kmh E 2.2 mph3.5 kmh 29.78 in1008.5 mb 0.01 in0.3 mm 0.00 in0.0 mm 0.01 in0.3 mm
04:50 PM 42.3°F5.7°C 38.4°F3.6°C 86% 0.7 mph SE1.1 kmh SE 3.8 mph6.1 kmh 29.78 in1008.5 mb 0.01 in0.3 mm 0.00 in0.0 mm 0.01 in0.3 mm
04:40 PM 42.3°F5.7°C 38.4°F3.6°C 86% 1.6 mph E2.6 kmh E 3.1 mph5.0 kmh 29.79 in1008.8 mb 0.01 in0.3 mm 0.00 in0.0 mm 0.01 in0.3 mm
04:30 PM 42.3°F5.7°C 38.1°F3.4°C 85% 2.2 mph N3.5 kmh N 3.1 mph5.0 kmh 29.79 in1008.8 mb 0.01 in0.3 mm 0.06 in1.5 mm 0.01 in0.3 mm
04:20 PM 42.4°F5.8°C 38.3°F3.5°C 85% 0.7 mph N1.1 kmh N 3.1 mph5.0 kmh 29.78 in1008.5 mb 0.00 in0.0 mm 0.00 in0.0 mm 0.00 in0.0 mm
04:10 PM 42.6°F5.9°C 38.4°F3.6°C 85% Calm Calm 4.5 mph7.2 kmh 29.78 in1008.5 mb 0.00 in0.0 mm 0.00 in0.0 mm 0.00 in0.0 mm
04:00 PM 42.8°F6.0°C 38.6°F3.7°C 85% 2.2 mph N3.5 kmh N 4.5 mph7.2 kmh 29.79 in1008.8 mb 0.00 in0.0 mm 0.00 in0.0 mm 0.00 in0.0 mm
03:50 PM 42.8°F6.0°C 38.6°F3.7°C 85% 1.6 mph E2.6 kmh E 4.5 mph7.2 kmh 29.78 in1008.5 mb 0.00 in0.0 mm 0.00 in0.0 mm 0.00 in0.0 mm
03:40 PM 42.8°F6.0°C 38.3°F3.5°C 84% 2.2 mph ENE3.5 kmh ENE 5.4 mph8.7 kmh 29.77 in1008.1 mb 0.00 in0.0 mm 0.00 in0.0 mm 0.00 in0.0 mm
03:30 PM 42.8°F6.0°C 38.3°F3.5°C 84% 1.6 mph NE2.6 kmh NE 3.8 mph6.1 kmh 29.78 in1008.5 mb 0.00 in0.0 mm 0.00 in0.0 mm 0.00 in0.0 mm
03:20 PM 42.8°F6.0°C 38.0°F3.3°C 83% 1.6 mph NE2.6 kmh NE 5.4 mph8.7 kmh 29.77 in1008.1 mb 0.00 in0.0 mm 0.00 in0.0 mm 0.00 in0.0 mm
03:10 PM 43.0°F6.1°C 38.2°F3.4°C 83% 1.6 mph NNE2.6 kmh NNE 3.8 mph6.1 kmh 29.78 in1008.5 mb 0.00 in0.0 mm 0.00 in0.0 mm 0.00 in0.0 mm
03:00 PM 43.2°F6.2°C 38.0°F3.3°C 82% 0.7 mph N1.1 kmh N 3.1 mph5.0 kmh 29.77 in1008.1 mb 0.00 in0.0 mm 0.00 in0.0 mm 0.00 in0.0 mm
02:50 PM 43.3°F6.3°C 38.2°F3.4°C 82% 1.6 mph NW2.6 kmh NW 3.8 mph6.1 kmh 29.76 in1007.8 mb 0.00 in0.0 mm 0.00 in0.0 mm 0.00 in0.0 mm
02:40 PM 43.5°F6.4°C 38.4°F3.6°C 82% 3.1 mph NNW5.0 kmh NNW 3.8 mph6.1 kmh 29.76 in1007.8 mb 0.00 in0.0 mm 0.00 in0.0 mm 0.00 in0.0 mm
02:30 PM 43.5°F6.4°C 38.4°F3.6°C 82% 1.6 mph N2.6 kmh N 3.8 mph6.1 kmh 29.76 in1007.8 mb 0.00 in0.0 mm 0.00 in0.0 mm 0.00 in0.0 mm
02:20 PM 43.5°F6.4°C 38.4°F3.6°C 82% 1.6 mph NNE2.6 kmh NNE 3.8 mph6.1 kmh 29.76 in1007.8 mb 0.00 in0.0 mm 0.00 in0.0 mm 0.00 in0.0 mm
02:10 PM 43.7°F6.5°C 38.6°F3.7°C 82% 1.6 mph SSE2.6 kmh SSE 2.2 mph3.5 kmh 29.76 in1007.8 mb 0.00 in0.0 mm 0.00 in0.0 mm 0.00 in0.0 mm
02:00 PM 43.7°F6.5°C 38.3°F3.5°C 81% 0.7 mph NNW1.1 kmh NNW 3.8 mph6.1 kmh 29.77 in1008.1 mb 0.00 in0.0 mm 0.00 in0.0 mm 0.00 in0.0 mm
01:50 PM 43.9°F6.6°C 38.4°F3.6°C 81% 1.6 mph E2.6 kmh E 5.4 mph8.7 kmh 29.77 in1008.1 mb 0.00 in0.0 mm 0.00 in0.0 mm 0.00 in0.0 mm
01:40 PM 43.9°F6.6°C 38.4°F3.6°C 81% 1.6 mph NNW2.6 kmh NNW 3.1 mph5.0 kmh 29.77 in1008.1 mb 0.00 in0.0 mm 0.00 in0.0 mm 0.00 in0.0 mm
01:30 PM 43.9°F6.6°C 38.4°F3.6°C 81% 2.2 mph NW3.5 kmh NW 3.8 mph6.1 kmh 29.78 in1008.5 mb 0.00 in0.0 mm 0.00 in0.0 mm 0.00 in0.0 mm
01:20 PM 43.9°F6.6°C 38.1°F3.4°C 80% 0.7 mph SSW1.1 kmh SSW 3.1 mph5.0 kmh 29.77 in1008.1 mb 0.00 in0.0 mm 0.00 in0.0 mm 0.00 in0.0 mm
01:10 PM 43.9°F6.6°C 38.1°F3.4°C 80% 0.7 mph N1.1 kmh N 3.1 mph5.0 kmh 29.77 in1008.1 mb 0.00 in0.0 mm 0.00 in0.0 mm 0.00 in0.0 mm
01:00 PM 43.9°F6.6°C 38.1°F3.4°C 80% 0.7 mph N1.1 kmh N 4.5 mph7.2 kmh 29.77 in1008.1 mb 0.00 in0.0 mm 0.00 in0.0 mm 0.00 in0.0 mm
12:50 PM 43.9°F6.6°C 38.1°F3.4°C 80% 2.2 mph NE3.5 kmh NE 3.8 mph6.1 kmh 29.77 in1008.1 mb 0.00 in0.0 mm 0.00 in0.0 mm 0.00 in0.0 mm
12:40 PM 43.9°F6.6°C 38.1°F3.4°C 80% 0.7 mph N1.1 kmh N 5.4 mph8.7 kmh 29.77 in1008.1 mb 0.00 in0.0 mm 0.00 in0.0 mm 0.00 in0.0 mm
12:30 PM 43.9°F6.6°C 38.1°F3.4°C 80% 0.7 mph NE1.1 kmh NE 3.8 mph6.1 kmh 29.77 in1008.1 mb 0.00 in0.0 mm 0.00 in0.0 mm 0.00 in0.0 mm
12:20 PM 43.7°F6.5°C 38.3°F3.5°C 81% 1.6 mph NE2.6 kmh NE 3.8 mph6.1 kmh 29.77 in1008.1 mb 0.00 in0.0 mm 0.00 in0.0 mm 0.00 in0.0 mm
12:10 PM 43.9°F6.6°C 38.4°F3.6°C 81% 2.2 mph NW3.5 kmh NW 3.8 mph6.1 kmh 29.78 in1008.5 mb 0.00 in0.0 mm 0.00 in0.0 mm 0.00 in0.0 mm
12:00 PM 43.7°F6.5°C 38.3°F3.5°C 81% 1.6 mph ENE2.6 kmh ENE 3.8 mph6.1 kmh 29.77 in1008.1 mb 0.00 in0.0 mm 0.00 in0.0 mm 0.00 in0.0 mm
11:50 AM 43.7°F6.5°C 38.3°F3.5°C 81% 1.6 mph NE2.6 kmh NE 3.1 mph5.0 kmh 29.77 in1008.1 mb 0.00 in0.0 mm 0.00 in0.0 mm 0.00 in0.0 mm
11:40 AM 43.3°F6.3°C 37.9°F3.3°C 81% 2.2 mph ENE3.5 kmh ENE 4.5 mph7.2 kmh 29.78 in1008.5 mb 0.00 in0.0 mm 0.00 in0.0 mm 0.00 in0.0 mm
11:30 AM 43.3°F6.3°C 37.9°F3.3°C 81% 2.2 mph ENE3.5 kmh ENE 4.5 mph7.2 kmh 29.77 in1008.1 mb 0.00 in0.0 mm 0.00 in0.0 mm 0.00 in0.0 mm
11:20 AM 43.3°F6.3°C 37.9°F3.3°C 81% 1.6 mph NE2.6 kmh NE 4.5 mph7.2 kmh 29.77 in1008.1 mb 0.00 in0.0 mm 0.00 in0.0 mm 0.00 in0.0 mm
11:10 AM 43.0°F6.1°C 37.6°F3.1°C 81% 2.2 mph NE3.5 kmh NE 4.5 mph7.2 kmh 29.78 in1008.5 mb 0.00 in0.0 mm 0.00 in0.0 mm 0.00 in0.0 mm
11:00 AM 42.8°F6.0°C 37.4°F3.0°C 81% 0.7 mph E1.1 kmh E 3.1 mph5.0 kmh 29.78 in1008.5 mb 0.00 in0.0 mm 0.00 in0.0 mm 0.00 in0.0 mm
10:50 AM 42.6°F5.9°C 37.2°F2.9°C 81% 1.6 mph E2.6 kmh E 3.1 mph5.0 kmh 29.77 in1008.1 mb 0.00 in0.0 mm 0.00 in0.0 mm 0.00 in0.0 mm
10:40 AM 42.4°F5.8°C 37.0°F2.8°C 81% Calm Calm 4.5 mph7.2 kmh 29.77 in1008.1 mb 0.00 in0.0 mm 0.00 in0.0 mm 0.00 in0.0 mm
10:30 AM 42.4°F5.8°C 37.0°F2.8°C 81% 0.7 mph WNW1.1 kmh WNW 4.5 mph7.2 kmh 29.77 in1008.1 mb 0.00 in0.0 mm 0.00 in0.0 mm 0.00 in0.0 mm
10:20 AM 42.3°F5.7°C 36.9°F2.7°C 81% 2.2 mph E3.5 kmh E 5.4 mph8.7 kmh 29.77 in1008.1 mb 0.00 in0.0 mm 0.00 in0.0 mm 0.00 in0.0 mm
10:10 AM 42.1°F5.6°C 36.7°F2.6°C 81% 3.1 mph NE5.0 kmh NE 6.0 mph9.7 kmh 29.78 in1008.5 mb 0.00 in0.0 mm 0.00 in0.0 mm 0.00 in0.0 mm
10:00 AM 42.1°F5.6°C 36.7°F2.6°C 81% 3.8 mph NE6.1 kmh NE 6.0 mph9.7 kmh 29.77 in1008.1 mb 0.00 in0.0 mm 0.00 in0.0 mm 0.00 in0.0 mm
09:50 AM 42.1°F5.6°C 36.7°F2.6°C 81% 2.2 mph NE3.5 kmh NE 6.9 mph11.1 kmh 29.78 in1008.5 mb 0.00 in0.0 mm 0.00 in0.0 mm 0.00 in0.0 mm
09:40 AM 41.9°F5.5°C 36.5°F2.5°C 81% 0.7 mph NW1.1 kmh NW 5.4 mph8.7 kmh 29.77 in1008.1 mb 0.00 in0.0 mm 0.00 in0.0 mm 0.00 in0.0 mm
09:30 AM 41.9°F5.5°C 36.5°F2.5°C 81% 3.1 mph E5.0 kmh E 6.0 mph9.7 kmh 29.77 in1008.1 mb 0.00 in0.0 mm 0.00 in0.0 mm 0.00 in0.0 mm
09:20 AM 41.7°F5.4°C 36.3°F2.4°C 81% 3.1 mph SSE5.0 kmh SSE 6.9 mph11.1 kmh 29.78 in1008.5 mb 0.00 in0.0 mm 0.00 in0.0 mm 0.00 in0.0 mm
09:10 AM 41.5°F5.3°C 36.2°F2.3°C 81% 4.5 mph NE7.2 kmh NE 6.9 mph11.1 kmh 29.78 in1008.5 mb 0.00 in0.0 mm 0.00 in0.0 mm 0.00 in0.0 mm
09:00 AM 41.0°F5.0°C 35.6°F2.0°C 81% 2.2 mph ENE3.5 kmh ENE 4.5 mph7.2 kmh 29.79 in1008.8 mb 0.00 in0.0 mm 0.00 in0.0 mm 0.00 in0.0 mm
08:50 AM 40.5°F4.7°C 35.1°F1.7°C 81% 1.6 mph NE2.6 kmh NE 5.4 mph8.7 kmh 29.79 in1008.8 mb 0.00 in0.0 mm 0.00 in0.0 mm 0.00 in0.0 mm
08:40 AM 40.3°F4.6°C 34.9°F1.6°C 81% 1.6 mph E2.6 kmh E 3.8 mph6.1 kmh 29.78 in1008.5 mb 0.00 in0.0 mm 0.00 in0.0 mm 0.00 in0.0 mm
08:30 AM 39.9°F4.4°C 34.6°F1.4°C 81% 3.1 mph N5.0 kmh N 3.8 mph6.1 kmh 29.77 in1008.1 mb 0.00 in0.0 mm 0.00 in0.0 mm 0.00 in0.0 mm
08:20 AM 39.7°F4.3°C 34.4°F1.3°C 81% 0.7 mph NNE1.1 kmh NNE 3.1 mph5.0 kmh 29.77 in1008.1 mb 0.00 in0.0 mm 0.00 in0.0 mm 0.00 in0.0 mm
08:10 AM 39.6°F4.2°C 34.2°F1.2°C 81% 2.2 mph N3.5 kmh N 3.1 mph5.0 kmh 29.76 in1007.8 mb 0.00 in0.0 mm 0.00 in0.0 mm 0.00 in0.0 mm
08:00 AM 39.6°F4.2°C 34.2°F1.2°C 81% 1.6 mph NNW2.6 kmh NNW 3.8 mph6.1 kmh 29.77 in1008.1 mb 0.00 in0.0 mm 0.00 in0.0 mm 0.00 in0.0 mm
07:50 AM 39.4°F4.1°C 34.0°F1.1°C 81% 2.2 mph NE3.5 kmh NE 3.8 mph6.1 kmh 29.76 in1007.8 mb 0.00 in0.0 mm 0.00 in0.0 mm 0.00 in0.0 mm
07:40 AM 39.2°F4.0°C 33.9°F1.1°C 81% 2.2 mph ENE3.5 kmh ENE 4.5 mph7.2 kmh 29.77 in1008.1 mb 0.00 in0.0 mm 0.00 in0.0 mm 0.00 in0.0 mm
07:30 AM 39.2°F4.0°C 33.6°F0.9°C 80% 2.2 mph NE3.5 kmh NE 5.4 mph8.7 kmh 29.77 in1008.1 mb 0.00 in0.0 mm 0.00 in0.0 mm 0.00 in0.0 mm
07:20 AM 39.0°F3.9°C 33.4°F0.8°C 80% 3.1 mph N5.0 kmh N 6.0 mph9.7 kmh 29.78 in1008.5 mb 0.00 in0.0 mm 0.00 in0.0 mm 0.00 in0.0 mm
07:10 AM 39.0°F3.9°C 33.4°F0.8°C 80% 3.8 mph ENE6.1 kmh ENE 6.0 mph9.7 kmh 29.78 in1008.5 mb 0.00 in0.0 mm 0.00 in0.0 mm 0.00 in0.0 mm
07:00 AM 38.8°F3.8°C 33.2°F0.7°C 80% 3.1 mph NE5.0 kmh NE 5.4 mph8.7 kmh 29.77 in1008.1 mb 0.00 in0.0 mm 0.00 in0.0 mm 0.00 in0.0 mm
06:50 AM 38.8°F3.8°C 33.2°F0.7°C 80% 0.7 mph NNE1.1 kmh NNE 5.4 mph8.7 kmh 29.77 in1008.1 mb 0.00 in0.0 mm 0.00 in0.0 mm 0.00 in0.0 mm
06:40 AM 38.8°F3.8°C 33.2°F0.7°C 80% 0.7 mph NNE1.1 kmh NNE 4.5 mph7.2 kmh 29.76 in1007.8 mb 0.00 in0.0 mm 0.00 in0.0 mm 0.00 in0.0 mm
06:30 AM 38.8°F3.8°C 33.2°F0.7°C 80% 0.7 mph ENE1.1 kmh ENE 4.5 mph7.2 kmh 29.76 in1007.8 mb 0.00 in0.0 mm 0.00 in0.0 mm 0.00 in0.0 mm
06:20 AM 38.8°F3.8°C 33.2°F0.7°C 80% 1.6 mph NNE2.6 kmh NNE 3.8 mph6.1 kmh 29.77 in1008.1 mb 0.00 in0.0 mm 0.00 in0.0 mm 0.00 in0.0 mm
06:10 AM 38.8°F3.8°C 32.9°F0.5°C 79% 2.2 mph SSE3.5 kmh SSE 3.8 mph6.1 kmh 29.77 in1008.1 mb 0.00 in0.0 mm 0.00 in0.0 mm 0.00 in0.0 mm
06:00 AM 38.8°F3.8°C 32.9°F0.5°C 79% 1.6 mph N2.6 kmh N 6.0 mph9.7 kmh 29.77 in1008.1 mb 0.00 in0.0 mm 0.00 in0.0 mm 0.00 in0.0 mm
05:50 AM 38.7°F3.7°C 32.7°F0.4°C 79% 3.1 mph NE5.0 kmh NE 7.6 mph12.2 kmh 29.77 in1008.1 mb 0.00 in0.0 mm 0.00 in0.0 mm 0.00 in0.0 mm
05:40 AM 38.7°F3.7°C 32.7°F0.4°C 79% 0.7 mph NW1.1 kmh NW 3.8 mph6.1 kmh 29.77 in1008.1 mb 0.00 in0.0 mm 0.00 in0.0 mm 0.00 in0.0 mm
05:30 AM 38.5°F3.6°C 32.2°F0.1°C 78% 2.2 mph WNW3.5 kmh WNW 6.0 mph9.7 kmh 29.76 in1007.8 mb 0.00 in0.0 mm 0.00 in0.0 mm 0.00 in0.0 mm
05:20 AM 38.7°F3.7°C 32.4°F0.2°C 78% 3.1 mph WNW5.0 kmh WNW 6.0 mph9.7 kmh 29.76 in1007.8 mb 0.00 in0.0 mm 0.00 in0.0 mm 0.00 in0.0 mm
05:10 AM 38.7°F3.7°C 32.4°F0.2°C 78% 1.6 mph ESE2.6 kmh ESE 4.5 mph7.2 kmh 29.78 in1008.5 mb 0.00 in0.0 mm 0.00 in0.0 mm 0.00 in0.0 mm
05:00 AM 38.7°F3.7°C 32.4°F0.2°C 78% 1.6 mph SSW2.6 kmh SSW 6.0 mph9.7 kmh 29.77 in1008.1 mb 0.00 in0.0 mm 0.00 in0.0 mm 0.00 in0.0 mm
04:50 AM 38.7°F3.7°C 32.4°F0.2°C 78% 2.2 mph SW3.5 kmh SW 5.4 mph8.7 kmh 29.78 in1008.5 mb 0.00 in0.0 mm 0.00 in0.0 mm 0.00 in0.0 mm
04:40 AM 38.7°F3.7°C 32.1°F0.1°C 77% 1.6 mph NNW2.6 kmh NNW 3.8 mph6.1 kmh 29.78 in1008.5 mb 0.00 in0.0 mm 0.00 in0.0 mm 0.00 in0.0 mm
04:30 AM 38.7°F3.7°C 32.1°F0.1°C 77% 1.6 mph N2.6 kmh N 4.5 mph7.2 kmh 29.79 in1008.8 mb 0.00 in0.0 mm 0.00 in0.0 mm 0.00 in0.0 mm
04:20 AM 39.0°F3.9°C 32.1°F0.1°C 76% 1.6 mph NE2.6 kmh NE 6.0 mph9.7 kmh 29.79 in1008.8 mb 0.00 in0.0 mm 0.00 in0.0 mm 0.00 in0.0 mm
04:10 AM 39.4°F4.1°C 32.5°F0.3°C 76% 3.8 mph NE6.1 kmh NE 6.0 mph9.7 kmh 29.80 in1009.1 mb 0.00 in0.0 mm 0.00 in0.0 mm 0.00 in0.0 mm
04:00 AM 39.6°F4.2°C 32.6°F0.3°C 76% 1.6 mph ESE2.6 kmh ESE 6.0 mph9.7 kmh 29.79 in1008.8 mb 0.00 in0.0 mm 0.00 in0.0 mm 0.00 in0.0 mm
03:50 AM 39.6°F4.2°C 33.0°F0.6°C 77% 1.6 mph SE2.6 kmh SE 3.8 mph6.1 kmh 29.79 in1008.8 mb 0.00 in0.0 mm 0.00 in0.0 mm 0.00 in0.0 mm
03:40 AM 39.6°F4.2°C 33.0°F0.6°C 77% 1.6 mph WSW2.6 kmh WSW 3.8 mph6.1 kmh 29.80 in1009.1 mb 0.00 in0.0 mm 0.00 in0.0 mm 0.00 in0.0 mm
03:30 AM 39.4°F4.1°C 33.1°F0.6°C 78% 1.6 mph NE2.6 kmh NE 6.0 mph9.7 kmh 29.80 in1009.1 mb 0.00 in0.0 mm 0.00 in0.0 mm 0.00 in0.0 mm
03:20 AM 39.2°F4.0°C 33.6°F0.9°C 80% 1.6 mph N2.6 kmh N 6.0 mph9.7 kmh 29.80 in1009.1 mb 0.00 in0.0 mm 0.00 in0.0 mm 0.00 in0.0 mm
03:10 AM 38.8°F3.8°C 33.2°F0.7°C 80% 0.7 mph WNW1.1 kmh WNW 4.5 mph7.2 kmh 29.80 in1009.1 mb 0.00 in0.0 mm 0.00 in0.0 mm 0.00 in0.0 mm
03:00 AM 38.7°F3.7°C 33.3°F0.7°C 81% 0.7 mph S1.1 kmh S 3.8 mph6.1 kmh 29.81 in1009.5 mb 0.00 in0.0 mm 0.00 in0.0 mm 0.00 in0.0 mm
02:50 AM 38.5°F3.6°C 33.2°F0.7°C 81% 1.6 mph WNW2.6 kmh WNW 3.8 mph6.1 kmh 29.81 in1009.5 mb 0.00 in0.0 mm 0.00 in0.0 mm 0.00 in0.0 mm
02:40 AM 38.3°F3.5°C 33.0°F0.6°C 81% 0.7 mph SE1.1 kmh SE 4.5 mph7.2 kmh 29.82 in1009.8 mb 0.00 in0.0 mm 0.00 in0.0 mm 0.00 in0.0 mm
02:30 AM 37.9°F3.3°C 32.6°F0.3°C 81% 0.7 mph SW1.1 kmh SW 3.8 mph6.1 kmh 29.82 in1009.8 mb 0.00 in0.0 mm 0.00 in0.0 mm 0.00 in0.0 mm
02:20 AM 37.8°F3.2°C 32.5°F0.3°C 81% 1.6 mph NW2.6 kmh NW 3.8 mph6.1 kmh 29.83 in1010.2 mb 0.00 in0.0 mm 0.00 in0.0 mm 0.00 in0.0 mm
02:10 AM 37.4°F3.0°C 32.1°F0.1°C 81% 1.6 mph WNW2.6 kmh WNW 3.8 mph6.1 kmh 29.82 in1009.8 mb 0.00 in0.0 mm 0.00 in0.0 mm 0.00 in0.0 mm
02:00 AM 37.4°F3.0°C 32.4°F0.2°C 82% 1.6 mph WSW2.6 kmh WSW 3.8 mph6.1 kmh 29.83 in1010.2 mb 0.00 in0.0 mm 0.00 in0.0 mm 0.00 in0.0 mm
01:50 AM 37.0°F2.8°C 32.1°F0.1°C 82% 1.6 mph NW2.6 kmh NW 3.8 mph6.1 kmh 29.83 in1010.2 mb 0.00 in0.0 mm 0.00 in0.0 mm 0.00 in0.0 mm
01:40 AM 36.9°F2.7°C 31.9°F-0.1°C 82% 1.6 mph N2.6 kmh N 5.4 mph8.7 kmh 29.84 in1010.5 mb 0.00 in0.0 mm 0.00 in0.0 mm 0.00 in0.0 mm
01:30 AM 36.3°F2.4°C 31.7°F-0.2°C 83% 3.8 mph SW6.1 kmh SW 5.4 mph8.7 kmh 29.84 in1010.5 mb 0.00 in0.0 mm 0.00 in0.0 mm 0.00 in0.0 mm
01:20 AM 36.1°F2.3°C 31.5°F-0.3°C 83% 3.1 mph SW5.0 kmh SW 3.8 mph6.1 kmh 29.84 in1010.5 mb 0.00 in0.0 mm 0.00 in0.0 mm 0.00 in0.0 mm
01:10 AM 36.1°F2.3°C 31.5°F-0.3°C 83% 1.6 mph SW2.6 kmh SW 3.1 mph5.0 kmh 29.84 in1010.5 mb 0.00 in0.0 mm 0.00 in0.0 mm 0.00 in0.0 mm
01:00 AM 36.0°F2.2°C 31.3°F-0.4°C 83% 0.7 mph SW1.1 kmh SW 3.8 mph6.1 kmh 29.85 in1010.8 mb 0.00 in0.0 mm 0.00 in0.0 mm 0.00 in0.0 mm
12:50 AM 35.4°F1.9°C 31.1°F-0.5°C 84% 2.2 mph SW3.5 kmh SW 3.8 mph6.1 kmh 29.84 in1010.5 mb 0.00 in0.0 mm 0.00 in0.0 mm 0.00 in0.0 mm
12:40 AM 35.2°F1.8°C 30.9°F-0.6°C 84% 1.6 mph WSW2.6 kmh WSW 2.2 mph3.5 kmh 29.85 in1010.8 mb 0.00 in0.0 mm 0.00 in0.0 mm 0.00 in0.0 mm
12:30 AM 35.1°F1.7°C 30.7°F-0.7°C 84% 0.7 mph WSW1.1 kmh WSW 3.1 mph5.0 kmh 29.86 in1011.2 mb 0.00 in0.0 mm 0.00 in0.0 mm 0.00 in0.0 mm
12:20 AM 35.1°F1.7°C 30.7°F-0.7°C 84% 0.7 mph WSW1.1 kmh WSW 2.2 mph3.5 kmh 29.86 in1011.2 mb 0.00 in0.0 mm 0.00 in0.0 mm 0.00 in0.0 mm
12:10 AM 34.9°F1.6°C 30.6°F-0.8°C 84% 0.7 mph ENE1.1 kmh ENE 2.2 mph3.5 kmh 29.86 in1011.2 mb 0.00 in0.0 mm 0.00 in0.0 mm 0.00 in0.0 mm
12:00 AM 34.3°F1.3°C 29.7°F-1.3°C 83% 0.7 mph W1.1 kmh W 3.1 mph5.0 kmh 29.86 in1011.2 mb 0.00 in0.0 mm 0.00 in0.0 mm 0.00 in0.0 mm